Time;durP1;ratioP1;P1;durP2;ratioP2;P2;SDS_P1;SDS_P2;PMS_P1;PMS_P2;Temp;Humidity;BMP_temperature;BMP_pressure;BME280_temperature;BME280_humidity;BME280_pressure;Samples;Min_cycle;Max_cycle;Signal;HPM_P1;HPM_P2
2022/11/11 00:00:17;;;;;;;;;13.00;11.33;;;;;11.61;73.83;102652.81;5058225;28;45395;-42
2022/11/11 00:02:43;;;;;;;;;12.00;9.67;;;;;11.60;74.07;102651.13;5058148;28;45339;-42
2022/11/11 00:05:09;;;;;;;;;8.00;7.33;;;;;11.59;73.86;102650.25;5058468;28;45213;-41
2022/11/11 00:07:34;;;;;;;;;9.00;9.00;;;;;11.50;74.38;102632.22;5058163;28;45989;-41
2022/11/11 00:09:59;;;;;;;;;11.67;9.00;;;;;11.59;73.92;102644.09;5057962;28;45546;-42
2022/11/11 00:12:25;;;;;;;;;11.00;10.00;;;;;11.49;74.29;102639.38;5058081;28;45396;-42
2022/11/11 00:14:50;;;;;;;;;14.00;9.67;;;;;11.54;74.29;102646.19;5058248;28;45307;-42
2022/11/11 00:25:27;;;;;;;;;15.00;12.00;;;;;11.47;74.67;102630.63;5057767;28;45374;-41
2022/11/11 00:27:53;;;;;;;;;7.33;7.00;;;;;11.39;75.01;102638.31;5057861;28;45404;-41
2022/11/11 00:30:18;;;;;;;;;23.67;12.00;;;;;11.39;75.03;102642.78;5057454;28;45252;-41
2022/11/11 00:32:44;;;;;;;;;22.00;10.00;;;;;11.38;74.82;102641.09;5057874;28;45513;-42
2022/11/11 00:37:53;;;;;;;;;15.67;14.33;;;;;11.35;75.03;102630.63;5057419;28;45705;-41
2022/11/11 00:40:19;;;;;;;;;13.67;10.67;;;;;11.34;74.72;102631.59;5057468;28;45437;-42
2022/11/11 00:42:44;;;;;;;;;12.33;9.67;;;;;11.33;74.92;102648.53;5057950;28;45218;-41
2022/11/11 00:45:10;;;;;;;;;10.33;8.67;;;;;11.33;75.13;102654.69;5057774;28;45470;-41
2022/11/11 00:53:16;;;;;;;;;10.00;9.00;;;;;11.36;74.69;102665.16;5057477;28;45386;-41
2022/11/11 00:55:42;;;;;;;;;7.33;3.00;;;;;11.36;75.10;102682.97;5057561;28;45433;-41
2022/11/11 00:58:07;;;;;;;;;10.00;8.00;;;;;11.33;74.54;102675.16;5057149;28;45425;-40
2022/11/11 01:00:33;;;;;;;;;12.67;8.00;;;;;11.31;74.56;102685.09;5057183;28;45252;-42
2022/11/11 01:02:58;;;;;;;;;7.00;7.00;;;;;11.31;74.44;102663.78;5057423;28;45382;-41
2022/11/11 01:05:24;;;;;;;;;14.00;11.00;;;;;11.32;74.45;102669.00;5057454;28;45414;-41
2022/11/11 01:07:50;;;;;;;;;15.33;13.67;;;;;11.34;74.51;102661.75;5056066;28;46329;-39
2022/11/11 01:10:36;;;;;;;;;15.67;11.00;;;;;11.29;74.93;102661.19;5056830;28;45197;-41
2022/11/11 01:13:14;;;;;;;;;19.00;14.67;;;;;11.31;74.98;102666.44;5056980;28;45361;-41
2022/11/11 01:15:41;;;;;;;;;13.00;13.00;;;;;11.30;74.82;102654.09;5057355;28;45481;-41
2022/11/11 01:18:09;;;;;;;;;10.00;7.00;;;;;11.27;75.17;102654.28;5056944;28;46114;-41
2022/11/11 01:20:36;;;;;;;;;16.67;12.33;;;;;11.26;75.05;102663.25;5056806;28;45554;-42
2022/11/11 01:23:03;;;;;;;;;14.67;8.67;;;;;11.21;75.08;102653.75;5057005;28;45361;-42
2022/11/11 01:25:28;;;;;;;;;13.33;9.33;;;;;11.26;74.96;102655.25;5057175;28;45394;-41
2022/11/11 01:27:53;;;;;;;;;8.67;8.33;;;;;11.21;75.04;102656.41;5056608;28;45334;-41
2022/11/11 01:30:19;;;;;;;;;16.67;10.00;;;;;11.22;75.36;102654.59;5056944;28;45193;-41
2022/11/11 01:32:44;;;;;;;;;14.67;11.67;;;;;11.22;75.11;102662.59;5056756;28;45296;-40
2022/11/11 01:35:09;;;;;;;;;14.33;10.33;;;;;11.19;74.87;102647.66;5056943;28;45364;-42
2022/11/11 01:37:35;;;;;;;;;17.33;9.33;;;;;11.18;74.61;102651.28;5056658;28;46112;-41
2022/11/11 01:40:01;;;;;;;;;9.00;7.33;;;;;11.22;74.50;102655.44;5056596;28;45339;-42
2022/11/11 01:42:26;;;;;;;;;16.67;10.33;;;;;11.27;74.66;102660.47;5058959;28;45359;-41
2022/11/11 01:44:51;;;;;;;;;12.67;11.00;;;;;11.27;74.50;102655.13;5060585;28;45489;-41
2022/11/11 01:47:18;;;;;;;;;16.67;8.33;;;;;11.32;74.44;102654.81;5060195;28;45299;-41
2022/11/11 01:49:50;;;;;;;;;18.33;10.00;;;;;11.32;74.36;102657.47;5060253;28;45402;-40
2022/11/11 01:52:31;;;;;;;;;14.67;8.67;;;;;11.29;74.36;102655.88;5060167;28;45392;-43
2022/11/11 01:55:02;;;;;;;;;11.00;8.33;;;;;11.29;74.33;102665.69;5060091;28;45602;-41
2022/11/11 01:57:35;;;;;;;;;9.67;8.67;;;;;11.25;74.19;102665.06;5059936;28;45378;-41
2022/11/11 02:00:05;;;;;;;;;12.33;8.00;;;;;11.21;74.23;102669.72;5060002;28;45296;-41
2022/11/11 02:02:39;;;;;;;;;12.00;7.00;;;;;11.19;74.29;102679.63;5059977;28;45339;-41
2022/11/11 02:07:53;;;;;;;;;13.00;11.67;;;;;11.18;74.18;102683.25;5059908;28;45362;-43
2022/11/11 02:10:24;;;;;;;;;11.33;8.00;;;;;11.23;74.27;102685.59;5059770;28;45254;-42
2022/11/11 02:15:35;;;;;;;;;12.33;7.00;;;;;11.26;74.29;102673.91;5060223;28;45503;-42
2022/11/11 02:18:00;;;;;;;;;12.67;11.00;;;;;11.34;74.35;102671.56;5059850;28;45354;-42
2022/11/11 02:20:29;;;;;;;;;11.67;10.00;;;;;11.31;74.17;102661.09;5059730;28;45339;-41
2022/11/11 02:23:05;;;;;;;;;12.00;7.33;;;;;11.26;74.07;102657.91;5060084;28;45316;-43
2022/11/11 02:25:32;;;;;;;;;12.67;10.33;;;;;11.18;74.16;102659.28;5059949;28;45395;-41
2022/11/11 02:28:02;;;;;;;;;10.33;7.33;;;;;11.19;74.23;102660.97;5059720;28;45362;-42
2022/11/11 02:30:27;;;;;;;;;11.67;9.00;;;;;11.13;74.10;102669.41;5059528;28;45498;-42
2022/11/11 02:32:53;;;;;;;;;15.33;7.00;;;;;11.09;74.58;102665.22;5059647;28;45233;-42
2022/11/11 02:35:28;;;;;;;;;10.00;7.67;;;;;11.03;74.75;102667.44;5059991;28;45290;-41
2022/11/11 02:37:53;;;;;;;;;12.67;10.33;;;;;10.93;75.12;102649.41;5059291;28;45352;-41
2022/11/11 02:40:36;;;;;;;;;11.67;10.33;;;;;11.05;74.75;102655.75;5059447;28;45419;-43
2022/11/11 02:43:02;;;;;;;;;10.67;10.00;;;;;10.99;74.55;102654.31;5059420;28;45381;-43
2022/11/11 02:45:28;;;;;;;;;24.00;12.33;;;;;10.96;74.94;102654.53;5059607;28;45168;-43
2022/11/11 02:47:53;;;;;;;;;14.00;10.33;;;;;10.90;75.27;102657.59;5058924;28;46201;-42
2022/11/11 02:50:19;;;;;;;;;13.00;11.67;;;;;10.91;75.05;102661.09;5059297;28;45418;-41
2022/11/11 02:52:44;;;;;;;;;12.67;8.00;;;;;10.92;74.60;102652.19;5059397;28;45243;-41
2022/11/11 02:55:10;;;;;;;;;12.33;8.33;;;;;10.85;74.93;102633.09;5059411;28;45229;-42
2022/11/11 02:57:36;;;;;;;;;10.00;10.00;;;;;11.01;74.80;102648.06;5059125;28;45467;-41
2022/11/11 03:00:03;;;;;;;;;3.67;1.67;;;;;11.05;74.70;102663.72;5059126;28;45402;-43
2022/11/11 03:02:29;;;;;;;;;10.67;10.00;;;;;11.09;74.63;102659.91;5059088;28;45377;-42
2022/11/11 03:04:55;;;;;;;;;9.67;9.33;;;;;11.09;74.72;102656.38;5059484;28;45322;-43
2022/11/11 03:07:21;;;;;;;;;17.33;12.00;;;;;11.06;74.52;102662.75;5059154;28;45279;-43
2022/11/11 03:09:47;;;;;;;;;9.00;8.00;;;;;11.08;74.62;102660.88;5059010;28;45208;-43
2022/11/11 03:12:12;;;;;;;;;15.00;8.00;;;;;11.12;74.32;102657.00;5059213;28;45280;-43
2022/11/11 03:14:38;;;;;;;;;14.33;6.33;;;;;11.06;74.07;102636.13;5059245;28;45463;-43
2022/11/11 03:19:51;;;;;;;;;11.67;10.00;;;;;11.14;73.84;102655.13;5059289;28;45408;-42
2022/11/11 03:22:16;;;;;;;;;11.50;9.00;;;;;11.13;73.71;102653.41;5059188;28;45351;-42
2022/11/11 03:27:25;;;;;;;;;9.00;9.00;;;;;11.11;73.82;102646.47;5058584;28;45500;-42
2022/11/11 03:29:51;;;;;;;;;14.67;8.67;;;;;11.06;73.87;102654.78;5058628;28;45452;-43
2022/11/11 03:32:16;;;;;;;;;14.00;11.33;;;;;11.03;74.24;102656.78;5058992;28;46000;-43
2022/11/11 03:34:42;;;;;;;;;12.33;10.33;;;;;10.98;74.25;102651.78;5058959;28;45389;-41
2022/11/11 03:39:53;;;;;;;;;8.00;7.67;;;;;11.01;74.76;102646.25;5058631;28;45391;-42
2022/11/11 03:42:18;;;;;;;;;11.67;11.67;;;;;11.06;74.67;102643.28;5058516;28;45350;-42
2022/11/11 03:44:44;;;;;;;;;15.00;10.67;;;;;11.08;74.22;102646.66;5058850;28;45332;-43
2022/11/11 03:47:09;;;;;;;;;17.67;12.00;;;;;11.05;74.27;102650.41;5056429;28;46279;-41
2022/11/11 03:49:34;;;;;;;;;14.33;7.33;;;;;11.02;74.48;102655.94;5058517;28;45476;-42
2022/11/11 03:52:00;;;;;;;;;15.00;11.33;;;;;11.02;74.50;102661.25;5058442;28;45492;-41
2022/11/11 03:54:25;;;;;;;;;13.00;10.00;;;;;10.98;74.44;102649.09;5058642;28;45302;-44
2022/11/11 03:56:50;;;;;;;;;12.00;8.67;;;;;11.06;74.33;102657.44;5058365;28;47190;-42
2022/11/11 03:59:16;;;;;;;;;10.33;6.67;;;;;11.04;74.07;102664.69;5058288;28;45217;-42
2022/11/11 04:18:16;;;;;;;;;16.33;11.00;;;;;10.75;74.60;102677.28;5057850;28;45826;-41
2022/11/11 04:23:26;;;;;;;;;7.00;7.00;;;;;10.72;75.22;102678.31;5057966;28;45316;-43
2022/11/11 04:25:52;;;;;;;;;12.00;8.00;;;;;10.65;75.22;102674.34;5057801;28;45383;-40
2022/11/11 04:31:02;;;;;;;;;11.00;8.67;;;;;10.65;75.90;102668.16;5057662;28;45562;-40
2022/11/11 04:33:27;;;;;;;;;13.33;11.67;;;;;10.67;76.18;102666.25;5057843;28;45315;-40
2022/11/11 04:35:52;;;;;;;;;11.33;7.67;;;;;10.68;76.22;102668.81;5057835;28;45399;-40
2022/11/11 04:41:02;;;;;;;;;14.33;10.00;;;;;10.74;75.99;102675.53;5057620;28;45535;-41
2022/11/11 04:43:27;;;;;;;;;11.33;8.33;;;;;10.75;75.78;102669.28;5057677;28;45294;-42
2022/11/11 04:45:57;;;;;;;;;19.67;15.00;;;;;10.73;76.26;102665.84;5057707;28;45406;-42
2022/11/11 04:48:22;;;;;;;;;12.67;9.00;;;;;10.74;76.13;102671.09;5057357;28;46306;-41
2022/11/11 04:50:48;;;;;;;;;8.33;5.00;;;;;10.76;76.16;102665.66;5057386;28;45449;-42
2022/11/11 04:53:14;;;;;;;;;14.67;9.33;;;;;10.77;76.36;102672.69;5057415;28;45273;-42
2022/11/11 04:58:29;;;;;;;;;10.00;8.67;;;;;10.83;76.42;102671.41;5057111;28;45290;-41
2022/11/11 05:00:54;;;;;;;;;11.33;8.33;;;;;10.88;76.37;102672.00;5057277;28;45438;-41
2022/11/11 05:03:22;;;;;;;;;15.33;12.00;;;;;10.91;76.21;102661.09;5057268;28;45465;-42
2022/11/11 05:09:00;;;;;;;;;11.00;9.67;;;;;10.89;76.76;102666.56;5057149;28;45880;-41
2022/11/11 05:11:34;;;;;;;;;15.67;12.33;;;;;10.87;76.24;102659.59;5057018;28;45410;-42
2022/11/11 05:22:31;;;;;;;;;15.33;10.00;;;;;10.81;75.42;102665.34;5057125;28;45336;-41
2022/11/11 05:27:41;;;;;;;;;15.00;10.67;;;;;10.83;75.08;102664.31;5057209;28;45417;-41
2022/11/11 05:30:09;;;;;;;;;15.00;9.67;;;;;10.83;75.24;102666.97;5056887;28;46090;-40
2022/11/11 05:32:35;;;;;;;;;11.67;6.00;;;;;10.79;74.68;102668.13;5072578;28;45435;-41
2022/11/11 05:35:00;;;;;;;;;11.00;8.00;;;;;10.70;74.83;102661.59;5057090;28;45389;-41
2022/11/11 05:37:26;;;;;;;;;12.33;8.67;;;;;10.65;75.25;102652.19;5072896;28;45242;-41
2022/11/11 05:39:51;;;;;;;;;7.67;7.33;;;;;10.66;75.37;102664.53;5056893;28;46184;-41
2022/11/11 05:42:17;;;;;;;;;13.33;11.00;;;;;10.67;75.51;102669.78;5056711;28;45311;-41
2022/11/11 05:44:42;;;;;;;;;10.00;10.00;;;;;10.65;75.60;102669.00;5056748;28;45286;-42
2022/11/11 05:47:08;;;;;;;;;8.33;6.00;;;;;10.67;75.01;102667.13;5057050;28;45509;-41
2022/11/11 05:49:33;;;;;;;;;12.00;8.67;;;;;10.62;75.34;102669.22;5056599;28;46083;-41
2022/11/11 05:51:59;;;;;;;;;9.67;5.33;;;;;10.65;75.25;102665.50;5055705;28;45331;-39
2022/11/11 05:54:24;;;;;;;;;7.00;5.00;;;;;10.55;75.56;102654.59;5056903;28;45537;-42
2022/11/11 05:56:50;;;;;;;;;7.33;6.00;;;;;10.63;75.24;102673.59;5057210;28;45344;-41
2022/11/11 05:59:16;;;;;;;;;7.00;7.00;;;;;10.60;74.82;102668.47;5056763;28;46037;-41
2022/11/11 06:01:41;;;;;;;;;7.00;7.00;;;;;10.50;74.87;102654.06;5056511;28;45523;-42
2022/11/11 06:04:07;;;;;;;;;7.33;5.33;;;;;10.54;74.97;102657.38;5056715;28;45375;-41
2022/11/11 06:06:33;;;;;;;;;8.00;8.00;;;;;10.61;74.86;102672.81;5056652;28;45307;-40
2022/11/11 06:08:59;;;;;;;;;7.00;7.00;;;;;10.61;74.87;102664.00;5056339;28;48231;-41
2022/11/11 06:11:26;;;;;;;;;9.67;5.33;;;;;10.59;75.03;102668.56;5056274;28;45458;-41
2022/11/11 06:13:52;;;;;;;;;8.67;7.33;;;;;10.59;75.30;102672.09;5056474;28;45442;-41
2022/11/11 06:16:17;;;;;;;;;10.33;6.67;;;;;10.62;75.16;102682.53;5056642;28;45407;-41
2022/11/11 06:18:43;;;;;;;;;13.67;9.67;;;;;10.63;75.31;102686.91;5056259;28;45936;-41
2022/11/11 06:21:08;;;;;;;;;9.33;6.33;;;;;10.59;75.12;102684.53;5055024;28;45340;-41
2022/11/11 06:23:34;;;;;;;;;6.00;5.00;;;;;10.56;74.87;102685.59;5056762;28;45267;-41
2022/11/11 06:26:15;;;;;;;;;11.67;7.00;;;;;10.55;75.35;102696.34;5056789;28;45593;-41
2022/11/11 06:28:54;;;;;;;;;5.33;5.00;;;;;10.52;75.19;102693.88;5058562;28;47245;-41
2022/11/11 06:31:22;;;;;;;;;7.33;6.00;;;;;10.51;75.61;102698.34;5059526;28;45335;-41
2022/11/11 06:33:47;;;;;;;;;9.67;7.67;;;;;10.54;75.59;102699.97;5059752;28;45402;-40
2022/11/11 06:36:16;;;;;;;;;8.00;6.00;;;;;10.54;75.46;102694.63;5059731;28;45271;-41
2022/11/11 06:38:41;;;;;;;;;6.33;5.00;;;;;10.45;75.76;102680.13;5059501;28;47075;-41
2022/11/11 06:41:09;;;;;;;;;9.67;6.00;;;;;10.51;75.45;102702.81;5059351;28;45370;-41
2022/11/11 06:43:34;;;;;;;;;7.00;7.00;;;;;10.54;75.21;102705.28;5059389;28;45403;-41
2022/11/11 06:46:00;;;;;;;;;8.67;8.67;;;;;10.54;75.36;102707.94;5059615;28;45427;-40
2022/11/11 06:48:27;;;;;;;;;10.00;6.67;;;;;10.57;75.67;102710.38;5059046;28;47225;-40
2022/11/11 06:50:54;;;;;;;;;9.33;6.00;;;;;10.53;75.49;102712.38;5059295;28;45329;-41
2022/11/11 06:53:21;;;;;;;;;8.33;7.33;;;;;10.56;75.58;102712.19;5059273;28;45328;-41
2022/11/11 06:55:47;;;;;;;;;8.00;6.33;;;;;10.55;75.86;102721.13;5059526;28;45260;-41
2022/11/11 06:58:18;;;;;;;;;7.00;6.00;;;;;10.54;75.42;102722.09;5059035;28;46053;-40
2022/11/11 07:00:45;;;;;;;;;10.00;9.33;;;;;10.54;75.54;102724.75;5059089;28;45369;-42
2022/11/11 07:03:12;;;;;;;;;9.67;8.33;;;;;10.53;75.87;102720.38;5058924;28;45311;-41
2022/11/11 07:05:38;;;;;;;;;10.00;9.00;;;;;10.52;76.03;102729.31;5059409;28;45365;-41
2022/11/11 07:08:06;;;;;;;;;12.00;8.00;;;;;10.52;76.27;102737.28;5058962;28;45386;-41
2022/11/11 07:10:33;;;;;;;;;11.00;9.33;;;;;10.51;76.21;102719.63;5058982;28;45339;-41
2022/11/11 07:12:59;;;;;;;;;8.33;6.00;;;;;10.45;75.97;102710.22;5059060;28;45386;-42
2022/11/11 07:15:25;;;;;;;;;11.33;10.00;;;;;10.53;76.20;102732.81;5058968;28;45287;-41
2022/11/11 07:17:50;;;;;;;;;6.00;5.00;;;;;10.47;76.37;102723.44;5058877;28;46109;-41
2022/11/11 07:20:15;;;;;;;;;12.00;8.00;;;;;10.43;76.69;102721.91;5058767;28;45343;-42
2022/11/11 07:22:41;;;;;;;;;10.67;7.00;;;;;10.46;76.42;102714.59;5058881;28;45340;-41
2022/11/11 07:25:06;;;;;;;;;10.67;6.33;;;;;10.39;76.73;102702.63;5059293;28;45383;-41
2022/11/11 07:27:36;;;;;;;;;10.00;6.33;;;;;10.49;76.70;102719.72;5058487;28;46918;-41
2022/11/11 07:30:01;;;;;;;;;11.00;7.00;;;;;10.49;76.56;102716.19;5058697;28;45517;-41
2022/11/11 07:32:26;;;;;;;;;11.33;8.67;;;;;10.45;76.72;102712.03;5058798;28;45355;-41
2022/11/11 07:34:52;;;;;;;;;10.00;8.67;;;;;10.36;76.82;102712.59;5057621;28;45496;-41
2022/11/11 07:37:17;;;;;;;;;15.33;9.33;;;;;10.38;76.54;102729.34;5058405;28;45341;-41
2022/11/11 07:39:42;;;;;;;;;15.00;9.33;;;;;10.34;76.92;102715.38;5057520;28;45350;-42
2022/11/11 07:42:08;;;;;;;;;9.33;8.00;;;;;10.33;76.93;102721.66;5058400;28;45542;-41
2022/11/11 07:44:33;;;;;;;;;14.33;8.33;;;;;10.28;76.93;102713.13;5058768;28;45378;-41
2022/11/11 07:46:59;;;;;;;;;7.00;7.00;;;;;10.34;77.10;102719.84;5057935;28;46206;-42
2022/11/11 07:49:24;;;;;;;;;13.67;8.67;;;;;10.36;77.08;102717.91;5058108;28;45435;-42
2022/11/11 07:51:49;;;;;;;;;11.67;9.00;;;;;10.36;76.88;102707.28;5058458;28;45479;-41
2022/11/11 07:54:14;;;;;;;;;11.67;8.00;;;;;10.41;76.94;102708.72;5058462;28;45422;-43
2022/11/11 07:56:40;;;;;;;;;14.67;10.00;;;;;10.38;76.91;102706.25;5058151;28;46844;-43
2022/11/11 07:59:05;;;;;;;;;9.33;9.00;;;;;10.37;77.13;102706.34;5057984;28;45433;-45
2022/11/11 08:01:30;;;;;;;;;10.33;10.00;;;;;10.39;76.96;102704.44;5058400;28;45421;-42
2022/11/11 08:03:56;;;;;;;;;10.67;7.33;;;;;10.44;76.98;102718.28;5058434;28;45450;-45
2022/11/11 08:06:21;;;;;;;;;13.00;8.00;;;;;10.47;77.02;102710.13;5058133;28;45264;-43
2022/11/11 08:08:47;;;;;;;;;14.33;10.67;;;;;10.50;76.73;102715.25;5058195;28;45399;-42
2022/11/11 08:11:14;;;;;;;;;11.67;7.33;;;;;10.51;76.52;102719.63;5058109;28;45425;-43
2022/11/11 08:13:40;;;;;;;;;10.00;8.33;;;;;10.13;76.95;102664.34;5058075;28;45362;-42
2022/11/11 08:16:07;;;;;;;;;10.67;8.33;;;;;10.47;76.63;102724.28;5057769;28;47201;-42
2022/11/11 08:18:35;;;;;;;;;8.67;7.00;;;;;10.48;76.27;102717.16;5057881;28;45330;-43
2022/11/11 08:21:02;;;;;;;;;8.67;7.33;;;;;10.51;76.33;102718.78;5057915;28;45359;-44
2022/11/11 08:23:31;;;;;;;;;14.67;10.67;;;;;10.56;76.53;102716.66;5058143;28;45330;-42
2022/11/11 08:26:06;;;;;;;;;15.00;6.00;;;;;10.59;76.47;102714.66;5057627;28;47222;-45
2022/11/11 08:28:33;;;;;;;;;14.00;10.33;;;;;10.62;76.24;102721.56;5057644;28;45402;-45
2022/11/11 08:31:00;;;;;;;;;13.00;9.67;;;;;10.63;76.29;102716.19;5056454;28;45259;-46
2022/11/11 08:33:27;;;;;;;;;15.00;7.67;;;;;10.64;76.23;102715.22;5057934;28;45358;-44
2022/11/11 08:35:54;;;;;;;;;12.00;7.33;;;;;10.61;76.23;102720.72;5057505;28;46183;-44
2022/11/11 08:38:20;;;;;;;;;16.67;12.33;;;;;10.62;76.53;102711.81;5057673;28;45578;-46
2022/11/11 08:40:46;;;;;;;;;13.00;9.33;;;;;10.65;76.47;102711.59;5057966;28;45233;-45
2022/11/11 08:43:12;;;;;;;;;10.33;8.00;;;;;10.70;76.16;102724.59;5058007;28;45411;-45
2022/11/11 08:45:37;;;;;;;;;14.33;11.00;;;;;10.69;76.10;102733.53;5057680;28;46284;-45
2022/11/11 08:48:04;;;;;;;;;12.00;9.67;;;;;10.66;76.26;102726.63;5057441;28;45440;-44
2022/11/11 08:50:29;;;;;;;;;16.33;11.67;;;;;10.67;76.51;102728.34;5057503;28;45304;-43
2022/11/11 08:52:54;;;;;;;;;15.00;12.00;;;;;10.67;76.65;102735.47;5057519;28;45331;-46
2022/11/11 08:55:20;;;;;;;;;15.00;11.00;;;;;10.68;76.51;102729.19;5057033;28;47315;-46
2022/11/11 08:57:45;;;;;;;;;11.67;10.00;;;;;10.72;76.44;102750.19;5057387;28;45394;-47
2022/11/11 09:00:12;;;;;;;;;11.67;10.00;;;;;10.71;75.55;102742.31;5057593;28;45337;-45
2022/11/11 09:02:37;;;;;;;;;12.00;11.00;;;;;10.68;76.06;102751.34;5057624;28;45574;-46
2022/11/11 09:05:04;;;;;;;;;14.33;9.00;;;;;10.59;76.24;102735.09;5057171;28;45541;-46
2022/11/11 09:07:29;;;;;;;;;13.33;9.33;;;;;10.62;76.42;102749.06;5057109;28;45469;-44
2022/11/11 09:09:55;;;;;;;;;12.00;11.00;;;;;10.64;76.14;102752.47;5057123;28;45369;-44
2022/11/11 09:12:20;;;;;;;;;12.00;9.33;;;;;10.65;76.57;102753.34;5057429;28;45241;-45
2022/11/11 09:14:47;;;;;;;;;11.00;10.67;;;;;10.67;76.79;102741.66;5056826;28;47112;-47
2022/11/11 09:17:12;;;;;;;;;13.33;12.00;;;;;10.68;76.44;102747.81;5057224;28;45340;-47
2022/11/11 09:19:37;;;;;;;;;13.67;9.67;;;;;10.68;76.29;102754.00;5057226;28;45392;-44
2022/11/11 09:22:03;;;;;;;;;9.00;8.33;;;;;10.71;76.40;102756.47;5057533;28;45354;-46
2022/11/11 09:24:28;;;;;;;;;19.67;10.33;;;;;10.68;76.29;102743.34;5057327;28;46196;-46
2022/11/11 09:26:53;;;;;;;;;13.67;11.00;;;;;10.64;76.37;102748.97;5057156;28;45394;-48
2022/11/11 09:29:19;;;;;;;;;14.33;10.33;;;;;10.65;76.52;102759.50;5057162;28;45670;-47
2022/11/11 09:31:45;;;;;;;;;12.00;9.33;;;;;10.69;76.02;102749.53;5057199;28;45319;-49
2022/11/11 09:34:12;;;;;;;;;15.67;8.00;;;;;10.70;76.30;102744.13;5056695;28;47143;-47
2022/11/11 09:36:37;;;;;;;;;10.67;10.33;;;;;10.63;75.83;102733.97;5056800;28;45281;-45
2022/11/11 09:39:03;;;;;;;;;14.00;8.33;;;;;10.70;75.52;102752.09;5056842;28;45158;-44
2022/11/11 09:41:58;;;;;;;;;12.00;9.00;;;;;10.66;75.88;102739.06;5057059;28;45660;-43
2022/11/11 09:44:42;;;;;;;;;17.33;11.67;;;;;10.78;75.87;102756.06;5056533;28;46418;-46
2022/11/11 09:47:27;;;;;;;;;16.33;7.00;;;;;10.78;75.77;102753.41;5056649;28;45407;-44
2022/11/11 09:50:00;;;;;;;;;17.00;12.33;;;;;10.84;75.60;102759.19;5056647;28;45259;-45
2022/11/11 09:52:30;;;;;;;;;12.67;12.00;;;;;10.88;75.33;102755.38;5056575;28;45334;-47
2022/11/11 09:55:11;;;;;;;;;11.67;11.33;;;;;10.92;75.89;102750.72;5056303;28;46246;-47
2022/11/11 09:58:13;;;;;;;;;19.33;14.00;;;;;10.95;75.69;102758.47;5056330;28;45378;-45
2022/11/11 10:00:44;;;;;;;;;11.00;9.33;;;;;10.96;75.82;102760.22;4974701;28;45545;-43
2022/11/11 10:03:18;;;;;;;;;22.00;17.33;;;;;10.95;75.54;102767.31;4976137;28;45734;-46
2022/11/11 10:06:03;;;;;;;;;7.67;7.67;;;;;10.91;75.77;102764.97;4978377;28;45234;-46
2022/11/11 10:08:35;;;;;;;;;19.00;12.67;;;;;10.85;75.71;102763.56;4978127;28;45335;-44
2022/11/11 10:11:04;;;;;;;;;15.67;13.33;;;;;10.87;75.65;102777.66;4978035;28;45382;-43
2022/11/11 10:13:35;;;;;;;;;14.33;13.00;;;;;10.89;75.89;102770.41;4977917;28;45470;-44
2022/11/11 10:16:05;;;;;;;;;15.00;13.67;;;;;10.88;75.61;102774.03;4978013;28;46316;-44
2022/11/11 10:18:57;;;;;;;;;16.33;12.33;;;;;10.86;75.94;102757.28;4978080;28;45298;-46
2022/11/11 10:21:31;;;;;;;;;9.33;9.33;;;;;10.80;75.16;102749.69;4978168;28;45374;-46
2022/11/11 10:24:01;;;;;;;;;16.00;13.67;;;;;10.90;75.33;102772.09;4978153;28;45275;-46
2022/11/11 10:26:38;;;;;;;;;12.67;11.67;;;;;10.92;74.96;102774.69;4977938;28;46217;-46
2022/11/11 10:29:12;;;;;;;;;14.00;10.67;;;;;10.93;75.07;102769.25;4977709;28;45362;-44
2022/11/11 10:31:39;;;;;;;;;12.67;11.67;;;;;10.93;74.58;102758.59;4977835;28;45561;-44
2022/11/11 10:34:10;;;;;;;;;9.00;7.33;;;;;10.90;74.70;102765.91;4977840;28;45584;-44
2022/11/11 10:36:42;;;;;;;;;9.00;9.00;;;;;10.94;74.76;102770.09;5032311;28;46238;-44
2022/11/11 10:39:12;;;;;;;;;10.00;10.00;;;;;10.92;74.91;102761.38;5059302;28;45306;-43
2022/11/11 10:41:44;;;;;;;;;11.33;10.00;;;;;10.95;74.46;102762.00;5058065;28;45361;-44
2022/11/11 10:44:27;;;;;;;;;11.67;9.67;;;;;10.95;74.43;102756.66;5075136;28;45448;-43
2022/11/11 10:47:09;;;;;;;;;14.33;10.67;;;;;10.95;74.18;102769.97;5059224;28;45270;-46
2022/11/11 10:49:44;;;;;;;;;13.00;7.00;;;;;10.96;74.33;102769.06;5059312;28;45288;-45
2022/11/11 10:52:13;;;;;;;;;12.00;9.33;;;;;11.01;74.31;102762.56;5059005;28;45383;-44
2022/11/11 10:55:08;;;;;;;;;13.67;12.00;;;;;11.00;74.02;102759.06;5059416;28;45346;-44
2022/11/11 10:57:39;;;;;;;;;14.33;11.00;;;;;10.99;74.33;102758.19;5056996;28;46204;-45
2022/11/11 11:00:07;;;;;;;;;15.00;12.00;;;;;11.03;74.34;102764.16;5058967;28;45407;-43
2022/11/11 11:03:03;;;;;;;;;12.00;11.00;;;;;11.08;74.06;102770.06;5059251;28;45291;-47
2022/11/11 11:05:39;;;;;;;;;11.67;8.00;;;;;11.12;73.85;102768.88;5059182;28;45211;-43
2022/11/11 11:08:14;;;;;;;;;11.33;10.00;;;;;11.08;74.34;102755.88;5058960;28;45432;-44
2022/11/11 11:10:44;;;;;;;;;10.00;10.00;;;;;11.12;73.76;102752.91;5058721;28;45410;-43
2022/11/11 11:13:20;;;;;;;;;16.67;11.67;;;;;11.17;73.85;102756.13;5058757;28;45371;-47
2022/11/11 11:15:55;;;;;;;;;12.00;11.00;;;;;11.22;73.68;102742.50;5058093;28;45284;-45
2022/11/11 11:18:21;;;;;;;;;13.67;10.67;;;;;11.30;73.58;102744.66;5058811;28;46378;-47
2022/11/11 11:21:02;;;;;;;;;13.33;10.00;;;;;11.36;73.43;102741.59;5058742;28;45264;-46
2022/11/11 11:23:38;;;;;;;;;11.00;11.00;;;;;11.44;73.23;102747.25;5058869;28;45519;-44
2022/11/11 11:26:04;;;;;;;;;16.67;11.00;;;;;11.45;72.83;102739.13;5059235;28;45378;-47
2022/11/11 11:28:30;;;;;;;;;11.00;8.67;;;;;11.45;72.42;102740.97;5058729;28;45462;-47
2022/11/11 11:31:06;;;;;;;;;11.00;8.67;;;;;11.48;72.84;102746.09;5058451;28;45343;-46
2022/11/11 11:33:55;;;;;;;;;11.33;8.33;;;;;11.48;72.90;102738.94;5057162;28;45411;-47
2022/11/11 11:36:21;;;;;;;;;12.33;11.00;;;;;11.56;72.72;102732.25;5058920;28;45312;-45
2022/11/11 11:38:51;;;;;;;;;11.00;8.33;;;;;11.55;72.38;102736.72;5058327;28;46143;-47
2022/11/11 11:41:35;;;;;;;;;14.67;11.33;;;;;11.55;72.68;102727.88;5058466;28;45284;-45
2022/11/11 11:44:00;;;;;;;;;11.67;11.67;;;;;11.58;72.53;102711.66;5058155;28;45543;-46
2022/11/11 11:46:29;;;;;;;;;18.33;15.00;;;;;11.71;72.26;102725.84;5058528;28;45410;-45
2022/11/11 11:49:14;;;;;;;;;13.00;11.67;;;;;11.73;71.94;102711.47;5058167;28;47224;-47
2022/11/11 11:51:54;;;;;;;;;15.67;11.67;;;;;11.98;71.55;102705.31;5058227;28;45229;-46
2022/11/11 11:54:29;;;;;;;;;14.67;10.33;;;;;12.17;71.61;102704.00;5058176;28;45365;-46
2022/11/11 11:57:00;;;;;;;;;17.67;14.00;;;;;12.18;70.47;102700.38;5058362;28;45388;-49
2022/11/11 11:59:44;;;;;;;;;15.67;11.67;;;;;12.17;70.16;102704.00;5057805;28;45264;-47
2022/11/11 12:02:39;;;;;;;;;14.67;12.00;;;;;12.21;70.89;102705.47;5058120;28;45355;-49
2022/11/11 12:05:05;;;;;;;;;14.33;12.00;;;;;12.58;69.89;102694.81;5058381;28;45224;-46
2022/11/11 12:08:05;;;;;;;;;13.00;12.00;;;;;13.21;68.91;102694.53;5058052;28;45158;-45
2022/11/11 12:10:54;;;;;;;;;17.00;14.00;;;;;13.42;67.91;102693.88;5058030;28;47338;-49
2022/11/11 12:13:19;;;;;;;;;14.00;13.00;;;;;13.21;67.28;102699.88;5057760;28;45265;-47
2022/11/11 12:16:02;;;;;;;;;14.33;10.33;;;;;13.05;67.59;102695.78;5057701;28;45292;-47
2022/11/11 12:18:57;;;;;;;;;20.00;13.33;;;;;12.91;68.02;102696.84;5058053;28;45359;-47
2022/11/11 12:21:29;;;;;;;;;18.00;13.67;;;;;12.85;68.02;102689.25;5057611;28;46110;-46
2022/11/11 12:24:07;;;;;;;;;14.67;14.00;;;;;12.89;68.57;102688.94;5057875;28;45441;-50
2022/11/11 12:27:04;;;;;;;;;14.00;13.33;;;;;12.99;68.32;102681.94;5057326;28;45406;-49
2022/11/11 12:29:40;;;;;;;;;16.33;11.00;;;;;13.15;68.56;102686.97;5058000;28;45331;-47
2022/11/11 12:32:34;;;;;;;;;15.00;13.00;;;;;13.29;67.92;102672.59;5057424;28;46329;-48
2022/11/11 12:35:14;;;;;;;;;13.33;9.00;;;;;13.50;67.30;102677.25;5057581;28;45158;-48